Time;durP1;ratioP1;P1;durP2;ratioP2;P2;SDS_P1;SDS_P2;PMS_P1;PMS_P2;Temp;Humidity;BMP_temperature;BMP_pressure;BME280_temperature;BME280_humidity;BME280_pressure;Samples;Min_cycle;Max_cycle;Signal;HPM_P1;HPM_P2
2022/01/19 00:01:23;;;;;;;;;;;;;;;6.74;58.41;102061.47;5012949;28;6788;-70
2022/01/19 00:03:50;;;;;;;;;;;;;;;6.69;59.01;102059.25;5013240;28;7070;-70
2022/01/19 00:06:16;;;;;;;;;;;;;;;6.63;58.84;102057.97;5011424;28;8228;-70
2022/01/19 00:08:42;;;;;;;;;;;;;;;6.58;58.56;102071.91;5014073;28;6832;-70
2022/01/19 00:11:08;;;;;;;;;;;;;;;6.49;58.05;102082.19;5000654;28;7022;-70
2022/01/19 00:13:33;;;;;;;;;;;;;;;6.41;58.71;102100.97;4996199;28;7083;-70
2022/01/19 00:15:59;;;;;;;;;;;;;;;6.30;58.78;102107.59;5015055;28;7167;-70
2022/01/19 00:18:25;;;;;;;;;;;;;;;6.23;58.66;102126.50;4995534;28;7265;-70
2022/01/19 00:20:54;;;;;;;;;;;;;;;6.15;58.16;102124.00;5016966;28;6887;-70
2022/01/19 00:23:21;;;;;;;;;;;;;;;6.06;58.61;102122.38;5013084;28;6816;-70
2022/01/19 00:25:49;;;;;;;;;;;;;;;5.99;58.53;102107.25;5010594;28;6831;-70
2022/01/19 00:28:15;;;;;;;;;;;;;;;5.92;59.00;102093.06;5048008;28;7168;-70
2022/01/19 00:30:42;;;;;;;;;;;;;;;5.88;58.54;102080.78;5018716;28;7167;-70
2022/01/19 00:33:08;;;;;;;;;;;;;;;5.82;59.20;102072.59;5037506;28;8074;-70
2022/01/19 00:35:35;;;;;;;;;;;;;;;5.78;59.11;102066.31;5012031;28;6808;-70
2022/01/19 00:38:03;;;;;;;;;;;;;;;5.76;59.19;102054.19;5015162;28;7038;-70
2022/01/19 00:40:29;;;;;;;;;;;;;;;5.75;59.28;102053.31;5019084;28;7015;-70
2022/01/19 00:42:55;;;;;;;;;;;;;;;5.72;59.32;102058.09;5016017;28;6791;-70
2022/01/19 00:45:21;;;;;;;;;;;;;;;5.70;59.25;102052.88;5034561;28;7197;-70
2022/01/19 00:47:47;;;;;;;;;;;;;;;5.67;59.41;102055.09;5019356;28;6816;-70
2022/01/19 00:50:20;;;;;;;;;;;;;;;5.66;59.56;102068.59;5017459;28;6812;-70
2022/01/19 00:52:46;;;;;;;;;;;;;;;5.63;59.29;102072.47;5050028;28;6984;-70
2022/01/19 00:55:13;;;;;;;;;;;;;;;5.58;59.00;102078.81;5015177;28;6791;-70
2022/01/19 00:57:40;;;;;;;;;;;;;;;5.53;58.61;102074.16;5006178;28;7279;-70
2022/01/19 01:00:11;;;;;;;;;;;;;;;5.48;59.19;102070.28;5023778;28;6962;-70
2022/01/19 01:02:36;;;;;;;;;;;;;;;5.43;59.21;102074.03;5010150;28;6828;-70
2022/01/19 01:05:03;;;;;;;;;;;;;;;5.38;58.98;102070.16;5035869;28;7094;-70
2022/01/19 01:07:30;;;;;;;;;;;;;;;5.32;58.61;102057.75;5034157;28;6823;-70
2022/01/19 01:09:55;;;;;;;;;;;;;;;5.27;59.10;102054.78;5020188;28;6808;-70
2022/01/19 01:12:28;;;;;;;;;;;;;;;5.21;59.13;102058.34;5021720;28;7058;-70
2022/01/19 01:20:22;;;;;;;;;;;;;;;5.12;59.55;102050.75;5037839;28;6832;-70
2022/01/19 01:22:48;;;;;;;;;;;;;;;5.12;59.70;102048.22;5037021;28;6882;-70
2022/01/19 01:25:14;;;;;;;;;;;;;;;5.11;59.74;102034.59;5021484;28;8286;-70
2022/01/19 01:27:40;;;;;;;;;;;;;;;5.13;59.56;102038.19;5035351;28;7356;-70
2022/01/19 01:30:08;;;;;;;;;;;;;;;5.13;60.01;102030.56;5019898;28;7249;-70
2022/01/19 01:32:33;;;;;;;;;;;;;;;5.11;59.62;102015.91;5019080;28;7445;-70
2022/01/19 01:34:59;;;;;;;;;;;;;;;5.08;59.16;102005.47;5037969;28;6791;-70
2022/01/19 01:37:25;;;;;;;;;;;;;;;5.04;59.99;101995.72;5004742;28;7271;-70
2022/01/19 01:39:51;;;;;;;;;;;;;;;5.00;59.87;101994.53;5016380;28;6831;-70
2022/01/19 01:42:19;;;;;;;;;;;;;;;4.96;59.38;101979.75;5036321;28;8425;-70
2022/01/19 01:44:49;;;;;;;;;;;;;;;4.91;60.07;101989.47;5021045;28;6808;-70
2022/01/19 01:47:17;;;;;;;;;;;;;;;4.84;59.83;101993.06;5031793;28;6907;-70
2022/01/19 01:53:17;;;;;;;;;;;;;;;4.80;59.97;102007.88;5033258;28;7007;-70
2022/01/19 01:55:20;;;;;;;;;;;;;;;4.75;60.50;102012.50;5019490;28;7937;-70
2022/01/19 01:57:47;;;;;;;;;;;;;;;4.73;60.31;102002.19;5022910;28;6860;-70
2022/01/19 02:00:20;;;;;;;;;;;;;;;4.73;60.43;102006.34;5017825;28;6872;-70
2022/01/19 02:02:47;;;;;;;;;;;;;;;4.75;60.51;101992.19;5004745;28;7258;-70
2022/01/19 02:05:15;;;;;;;;;;;;;;;4.78;60.87;101981.41;5019535;28;6895;-70
2022/01/19 02:23:51;;;;;;;;;;;;;;;4.59;60.02;101918.69;5017982;28;7001;-70
2022/01/19 02:26:26;;;;;;;;;;;;;;;4.61;60.03;101911.19;5036247;28;6811;-70
2022/01/19 02:30:06;;;;;;;;;;;;;;;4.62;60.67;101911.34;5016880;28;6915;-70
2022/01/19 02:40:15;;;;;;;;;;;;;;;4.75;61.07;101902.38;5018418;28;7855;-70
2022/01/19 02:50:59;;;;;;;;;;;;;;;4.76;61.20;101891.44;5016974;28;7908;-70
2022/01/19 02:53:25;;;;;;;;;;;;;;;4.79;61.44;101891.75;5014431;28;7105;-70
2022/01/19 02:55:51;;;;;;;;;;;;;;;4.82;61.40;101887.84;5000051;28;7928;-70
2022/01/19 02:58:21;;;;;;;;;;;;;;;4.85;61.17;101885.63;5032511;28;9490;-70
2022/01/19 03:08:41;;;;;;;;;;;;;;;4.91;60.92;101852.25;5017459;28;6891;-70
2022/01/19 03:09:02;;;;;;;;;;;;;;;4.97;61.51;101841.78;5024251;28;7646;-70
2022/01/19 03:11:28;;;;;;;;;;;;;;;5.06;62.15;101842.66;5042177;28;7457;-70
2022/01/19 03:13:54;;;;;;;;;;;;;;;5.14;62.67;101831.56;5009003;28;6950;-70
2022/01/19 03:16:21;;;;;;;;;;;;;;;5.24;62.46;101832.41;5038428;28;7900;-70
2022/01/19 03:18:48;;;;;;;;;;;;;;;5.34;61.85;101834.13;5005807;28;8507;-70
2022/01/19 03:21:17;;;;;;;;;;;;;;;5.46;62.78;101840.38;5038983;28;7596;-70
2022/01/19 03:23:44;;;;;;;;;;;;;;;5.58;62.92;101850.75;5038713;28;6788;-70
2022/01/19 03:26:10;;;;;;;;;;;;;;;5.71;62.47;101837.50;5051232;28;6812;-70
2022/01/19 03:28:35;;;;;;;;;;;;;;;5.83;62.53;101832.63;5038437;28;6792;-70
2022/01/19 03:31:03;;;;;;;;;;;;;;;5.95;62.42;101833.72;4992032;28;7341;-71
2022/01/19 03:33:29;;;;;;;;;;;;;;;6.04;62.08;101833.72;5016837;28;6804;-70
2022/01/19 03:35:55;;;;;;;;;;;;;;;6.13;62.21;101831.06;5043396;28;6788;-70
2022/01/19 03:38:21;;;;;;;;;;;;;;;6.19;61.65;101831.63;5030555;28;7065;-70
2022/01/19 03:40:46;;;;;;;;;;;;;;;6.26;62.04;101830.50;5031809;28;7346;-70
2022/01/19 03:43:12;;;;;;;;;;;;;;;6.31;61.97;101839.44;5026257;28;7240;-70
2022/01/19 03:45:38;;;;;;;;;;;;;;;6.38;61.81;101843.44;5015399;28;6946;-70
2022/01/19 03:51:11;;;;;;;;;;;;;;;6.50;62.09;101836.88;5028196;28;8222;-70
2022/01/19 03:53:38;;;;;;;;;;;;;;;6.61;61.62;101831.81;5009940;28;6828;-70
2022/01/19 03:56:05;;;;;;;;;;;;;;;6.67;61.73;101825.59;5006489;28;6999;-70
2022/01/19 03:58:31;;;;;;;;;;;;;;;6.74;61.58;101819.38;4984524;28;6994;-70
2022/01/19 04:00:58;;;;;;;;;;;;;;;6.80;61.03;101813.91;5005691;28;7250;-70
2022/01/19 04:06:16;;;;;;;;;;;;;;;6.88;60.66;101814.59;5008049;28;6831;-70
2022/01/19 04:08:42;;;;;;;;;;;;;;;6.91;61.32;101802.09;4998029;28;6997;-70
2022/01/19 04:11:08;;;;;;;;;;;;;;;6.94;60.81;101799.78;5025840;28;6997;-70
2022/01/19 04:13:56;;;;;;;;;;;;;;;6.96;60.62;101800.84;5011990;28;6811;-70
2022/01/19 04:16:19;;;;;;;;;;;;;;;6.97;60.86;101800.06;5043635;28;8895;-70
2022/01/19 04:18:45;;;;;;;;;;;;;;;7.00;60.31;101810.53;5012826;28;6954;-70
2022/01/19 04:21:10;;;;;;;;;;;;;;;7.01;60.22;101812.31;5028474;28;6843;-70
2022/01/19 04:23:36;;;;;;;;;;;;;;;7.03;60.88;101813.31;5015680;28;7753;-70
2022/01/19 04:26:03;;;;;;;;;;;;;;;7.09;60.36;101818.03;5027443;28;7602;-70
2022/01/19 04:28:29;;;;;;;;;;;;;;;7.12;59.97;101805.56;5001488;28;7025;-70
2022/01/19 04:30:54;;;;;;;;;;;;;;;7.18;60.61;101805.19;5009412;28;6857;-70
2022/01/19 04:33:24;;;;;;;;;;;;;;;7.21;60.46;101800.34;5025809;28;8453;-70
2022/01/19 04:35:52;;;;;;;;;;;;;;;7.25;60.46;101792.22;5009865;28;6812;-70
2022/01/19 04:49:05;;;;;;;;;;;;;;;7.39;60.46;101784.81;5024125;28;6976;-70
2022/01/19 05:07:28;;;;;;;;;;;;;;;7.25;60.22;101779.47;5023037;28;6880;-70
2022/01/19 05:15:26;;;;;;;;;;;;;;;7.23;59.98;101758.91;5006078;28;6835;-70
2022/01/19 05:17:52;;;;;;;;;;;;;;;7.27;59.68;101754.97;5009157;28;6878;-70
2022/01/19 05:20:18;;;;;;;;;;;;;;;7.28;60.51;101754.19;5009837;28;7368;-70
2022/01/19 05:22:43;;;;;;;;;;;;;;;7.32;59.74;101745.16;5005182;28;9558;-70
2022/01/19 05:25:09;;;;;;;;;;;;;;;7.35;59.84;101738.66;5026752;28;7848;-70
2022/01/19 05:27:35;;;;;;;;;;;;;;;7.38;60.42;101737.97;5026080;28;7170;-70
2022/01/19 05:30:00;;;;;;;;;;;;;;;7.42;59.59;101744.22;4991642;28;6780;-70
2022/01/19 05:32:26;;;;;;;;;;;;;;;7.45;59.42;101736.84;5032140;28;6807;-70
2022/01/19 05:34:52;;;;;;;;;;;;;;;7.48;60.12;101732.91;5010447;28;7281;-70
2022/01/19 05:37:18;;;;;;;;;;;;;;;7.50;60.20;101725.34;5030411;28;6922;-70
2022/01/19 05:39:43;;;;;;;;;;;;;;;7.52;60.26;101711.06;5008050;28;6915;-70
2022/01/19 05:42:15;;;;;;;;;;;;;;;7.56;60.22;101705.44;5027108;28;6820;-70
2022/01/19 05:44:45;;;;;;;;;;;;;;;7.58;60.15;101710.66;5007504;28;7238;-70
2022/01/19 05:47:13;;;;;;;;;;;;;;;7.60;59.23;101710.00;5010714;28;6827;-70
2022/01/19 05:49:43;;;;;;;;;;;;;;;7.62;59.71;101713.56;5009682;28;7278;-70
2022/01/19 05:52:10;;;;;;;;;;;;;;;7.66;59.95;101706.19;5010159;28;6960;-70
2022/01/19 05:54:36;;;;;;;;;;;;;;;7.66;59.73;101704.50;5023930;28;7471;-70
2022/01/19 05:57:02;;;;;;;;;;;;;;;7.68;60.12;101699.53;5010741;28;7209;-70
2022/01/19 05:59:28;;;;;;;;;;;;;;;7.71;59.28;101694.69;5007558;28;6981;-70
2022/01/19 06:01:55;;;;;;;;;;;;;;;7.73;59.00;101688.94;4992275;28;6982;-70
2022/01/19 06:04:22;;;;;;;;;;;;;;;7.75;59.12;101692.50;5030044;28;7218;-70
2022/01/19 06:06:50;;;;;;;;;;;;;;;7.77;58.95;101687.53;5010646;28;6804;-70
2022/01/19 06:09:36;;;;;;;;;;;;;;;7.78;59.81;101686.75;5006362;28;6832;-70
2022/01/19 06:12:09;;;;;;;;;;;;;;;7.78;59.16;101680.00;5009284;28;7129;-70
2022/01/19 06:14:37;;;;;;;;;;;;;;;7.80;59.55;101677.56;5014718;28;6883;-70
2022/01/19 06:17:06;;;;;;;;;;;;;;;7.81;59.03;101671.66;5017190;28;6815;-70
2022/01/19 06:19:32;;;;;;;;;;;;;;;7.83;59.27;101669.25;5053620;28;6895;-70
2022/01/19 06:21:58;;;;;;;;;;;;;;;7.85;59.27;101660.94;5013705;28;7302;-70
2022/01/19 06:24:24;;;;;;;;;;;;;;;7.85;58.63;101655.84;5019232;28;7494;-70
2022/01/19 06:26:50;;;;;;;;;;;;;;;7.88;59.24;101650.97;5039993;28;7181;-70
2022/01/19 06:29:16;;;;;;;;;;;;;;;7.90;58.52;101648.56;5018943;28;6805;-70
2022/01/19 06:31:42;;;;;;;;;;;;;;;7.91;58.73;101642.66;5050970;28;7138;-70
2022/01/19 06:34:08;;;;;;;;;;;;;;;7.91;58.77;101641.00;4995764;28;7395;-70
2022/01/19 06:36:34;;;;;;;;;;;;;;;7.94;58.87;101642.03;5011971;28;7000;-70
2022/01/19 06:39:00;;;;;;;;;;;;;;;7.96;58.57;101648.16;5018326;28;6807;-70
2022/01/19 06:41:26;;;;;;;;;;;;;;;7.97;58.21;101642.25;5013062;28;8077;-70
2022/01/19 06:43:51;;;;;;;;;;;;;;;7.98;58.68;101642.41;5013224;28;6856;-70
2022/01/19 06:46:17;;;;;;;;;;;;;;;8.01;59.16;101640.06;5023444;28;7094;-70
2022/01/19 06:48:43;;;;;;;;;;;;;;;8.04;58.47;101641.97;5023421;28;7192;-70
2022/01/19 06:51:09;;;;;;;;;;;;;;;8.05;59.00;101648.88;4999455;28;7867;-70
2022/01/19 06:53:35;;;;;;;;;;;;;;;8.08;57.83;101644.00;5055136;28;7330;-70
2022/01/19 06:56:00;;;;;;;;;;;;;;;8.11;58.22;101641.69;4998147;28;7289;-70
2022/01/19 06:58:28;;;;;;;;;;;;;;;8.15;57.84;101646.25;5039433;28;6799;-70
2022/01/19 07:00:56;;;;;;;;;;;;;;;8.19;57.55;101642.28;5040423;28;6959;-70
2022/01/19 07:03:22;;;;;;;;;;;;;;;8.22;57.97;101639.94;5016578;28;7053;-70
2022/01/19 07:05:48;;;;;;;;;;;;;;;8.23;58.25;101633.19;5022693;28;7382;-70
2022/01/19 07:08:16;;;;;;;;;;;;;;;8.26;57.07;101633.41;5012989;28;7019;-70
2022/01/19 07:10:42;;;;;;;;;;;;;;;8.28;57.68;101630.22;5022988;28;6795;-70
2022/01/19 07:13:08;;;;;;;;;;;;;;;8.30;57.96;101630.31;5025300;28;6943;-70
2022/01/19 07:15:36;;;;;;;;;;;;;;;8.31;58.20;101630.44;5018090;28;7098;-70
2022/01/19 07:18:03;;;;;;;;;;;;;;;8.31;57.15;101625.34;5033262;28;8688;-70
2022/01/19 07:20:30;;;;;;;;;;;;;;;8.33;57.98;101622.91;4997650;28;6816;-70
2022/01/19 07:22:57;;;;;;;;;;;;;;;8.34;57.49;101617.91;5031979;28;6954;-70
2022/01/19 07:25:23;;;;;;;;;;;;;;;8.38;57.72;101620.72;5017123;28;7000;-70
2022/01/19 07:27:49;;;;;;;;;;;;;;;8.39;57.39;101614.81;5007474;28;6873;-70
2022/01/19 07:30:15;;;;;;;;;;;;;;;8.43;56.53;101622.84;5007473;28;6999;-70
2022/01/19 07:32:42;;;;;;;;;;;;;;;8.45;56.63;101618.72;5036201;28;7218;-70
2022/01/19 07:35:09;;;;;;;;;;;;;;;8.50;57.11;101615.63;5012656;28;6804;-70
2022/01/19 07:37:35;;;;;;;;;;;;;;;8.54;57.67;101621.13;5009102;28;7216;-70
2022/01/19 07:40:01;;;;;;;;;;;;;;;8.58;56.47;101624.78;5014409;28;7213;-70
2022/01/19 07:42:26;;;;;;;;;;;;;;;8.59;56.36;101613.78;5034787;28;6821;-70
2022/01/19 07:44:53;;;;;;;;;;;;;;;8.59;56.80;101613.78;5006503;28;6800;-70
2022/01/19 07:47:20;;;;;;;;;;;;;;;8.58;57.00;101610.38;5028626;28;7142;-70
2022/01/19 07:49:46;;;;;;;;;;;;;;;8.58;56.12;101612.91;5017607;28;6875;-70
2022/01/19 07:52:13;;;;;;;;;;;;;;;8.58;56.90;101612.91;4995038;28;7228;-70
2022/01/19 07:54:39;;;;;;;;;;;;;;;8.59;56.62;101603.56;5014427;28;7158;-70
2022/01/19 07:57:05;;;;;;;;;;;;;;;8.55;56.76;101601.56;5037074;28;7278;-70
2022/01/19 07:59:31;;;;;;;;;;;;;;;8.53;56.78;101603.13;5018523;28;7436;-70
2022/01/19 08:01:58;;;;;;;;;;;;;;;8.51;57.33;101609.78;5034671;28;9756;-70
2022/01/19 08:04:24;;;;;;;;;;;;;;;8.47;56.84;101591.63;5014002;28;7298;-70
2022/01/19 08:06:54;;;;;;;;;;;;;;;8.46;56.84;101591.53;5035792;28;7098;-70
2022/01/19 08:09:22;;;;;;;;;;;;;;;8.43;56.46;101581.97;5011122;28;6816;-70
2022/01/19 08:11:48;;;;;;;;;;;;;;;8.41;56.70;101586.06;5054812;28;7054;-70
2022/01/19 08:14:13;;;;;;;;;;;;;;;8.40;56.73;101580.84;5021310;28;6871;-70
2022/01/19 08:16:39;;;;;;;;;;;;;;;8.39;57.06;101574.81;5007587;28;7027;-70
2022/01/19 08:19:05;;;;;;;;;;;;;;;8.38;56.19;101573.03;5020973;28;6808;-70
2022/01/19 08:21:30;;;;;;;;;;;;;;;8.38;56.35;101579.84;5037045;28;7217;-70
2022/01/19 08:23:56;;;;;;;;;;;;;;;8.38;56.85;101578.16;5035067;28;6831;-70
2022/01/19 08:26:22;;;;;;;;;;;;;;;8.38;56.14;101573.03;5011585;28;6855;-70
2022/01/19 08:28:47;;;;;;;;;;;;;;;8.38;56.40;101573.03;4997173;28;6784;-70
2022/01/19 08:31:14;;;;;;;;;;;;;;;8.40;56.57;101576.63;5033255;28;6799;-70
2022/01/19 08:33:39;;;;;;;;;;;;;;;8.42;56.71;101576.72;5053501;28;7134;-70
2022/01/19 08:36:06;;;;;;;;;;;;;;;8.44;56.35;101576.06;5037109;28;6800;-70
2022/01/19 08:38:32;;;;;;;;;;;;;;;8.46;56.24;101571.97;5018891;28;6811;-70
2022/01/19 08:40:58;;;;;;;;;;;;;;;8.48;55.68;101570.41;5035417;28;6974;-70
2022/01/19 08:43:24;;;;;;;;;;;;;;;8.54;56.15;101574.25;5031817;28;7003;-70
2022/01/19 08:45:51;;;;;;;;;;;;;;;8.57;56.72;101570.25;5013888;28;7919;-70
2022/01/19 08:48:18;;;;;;;;;;;;;;;8.61;56.24;101577.38;5012862;28;7006;-70
2022/01/19 08:50:44;;;;;;;;;;;;;;;8.66;56.95;101576.84;5014092;28;7030;-70
2022/01/19 08:53:10;;;;;;;;;;;;;;;8.71;55.58;101578.97;5036323;28;7625;-70
2022/01/19 08:55:36;;;;;;;;;;;;;;;8.75;56.01;101565.59;5015183;28;6788;-70
2022/01/19 08:58:04;;;;;;;;;;;;;;;8.80;55.90;101567.63;5034630;28;7179;-70
2022/01/19 09:00:30;;;;;;;;;;;;;;;8.84;55.67;101565.41;5008725;28;7304;-70
2022/01/19 09:02:56;;;;;;;;;;;;;;;8.88;55.17;101564.84;5009220;28;6871;-69
2022/01/19 09:05:22;;;;;;;;;;;;;;;8.94;56.34;101560.97;5012982;28;6787;-70
2022/01/19 09:07:48;;;;;;;;;;;;;;;8.98;56.09;101556.22;5031399;28;7282;-70
2022/01/19 09:10:15;;;;;;;;;;;;;;;9.03;56.14;101548.88;5019990;28;7272;-70
2022/01/19 09:12:41;;;;;;;;;;;;;;;9.09;55.48;101546.72;5031644;28;6803;-70
2022/01/19 09:15:09;;;;;;;;;;;;;;;9.13;55.69;101537.63;5012904;28;7270;-72
2022/01/19 09:17:35;;;;;;;;;;;;;;;9.17;54.75;101534.50;5032467;28;6799;-72
2022/01/19 09:20:05;;;;;;;;;;;;;;;9.17;54.86;101527.72;5008309;28;7202;-72
2022/01/19 09:22:32;;;;;;;;;;;;;;;9.17;55.53;101526.81;5009357;28;6983;-70
2022/01/19 09:24:58;;;;;;;;;;;;;;;9.14;54.15;101519.84;5007968;28;7233;-70
2022/01/19 09:27:23;;;;;;;;;;;;;;;9.13;54.66;101518.06;4999710;28;7971;-70
2022/01/19 09:29:49;;;;;;;;;;;;;;;9.12;54.97;101520.50;5019261;28;6988;-70
2022/01/19 09:32:15;;;;;;;;;;;;;;;9.10;55.20;101522.94;5030444;28;9596;-70
2022/01/19 09:34:48;;;;;;;;;;;;;;;9.11;55.24;101514.47;5012415;28;7403;-70
2022/01/19 09:37:16;;;;;;;;;;;;;;;9.13;54.53;101517.16;5047214;28;7118;-70
2022/01/19 09:39:42;;;;;;;;;;;;;;;9.15;53.89;101520.72;5023885;28;6796;-70
2022/01/19 09:42:08;;;;;;;;;;;;;;;9.14;54.85;101517.28;5000678;28;6900;-70
2022/01/19 09:44:34;;;;;;;;;;;;;;;9.13;54.86;101507.84;5002320;28;7975;-70
2022/01/19 09:46:59;;;;;;;;;;;;;;;9.13;55.17;101506.94;5020586;28;7010;-70
2022/01/19 09:49:25;;;;;;;;;;;;;;;9.11;53.87;101504.25;5015653;28;7259;-70
2022/01/19 09:51:54;;;;;;;;;;;;;;;9.12;53.90;101508.59;5007393;28;6807;-70
2022/01/19 09:54:24;;;;;;;;;;;;;;;9.15;54.85;101506.25;5029142;28;7101;-70
2022/01/19 09:56:50;;;;;;;;;;;;;;;9.19;54.70;101496.25;5011342;28;6989;-70
2022/01/19 09:59:16;;;;;;;;;;;;;;;9.22;54.84;101502.47;5018174;28;6811;-70
2022/01/19 10:01:52;;;;;;;;;;;;;;;9.28;53.83;101496.91;5006848;28;6819;-70
2022/01/19 10:04:30;;;;;;;;;;;;;;;9.33;53.87;101495.56;5005586;28;7908;-70
2022/01/19 10:07:28;;;;;;;;;;;;;;;9.40;54.41;101491.75;5034945;28;7031;-70
2022/01/19 10:10:00;;;;;;;;;;;;;;;9.45;53.66;101480.16;4968645;28;6974;-70
2022/01/19 10:18:25;;;;;;;;;;;;;;;9.54;54.01;101465.44;5036667;28;6831;-70
2022/01/19 10:21:16;;;;;;;;;;;;;;;9.55;53.97;101459.53;5006016;28;8160;-70
2022/01/19 10:23:51;;;;;;;;;;;;;;;9.57;53.82;101451.97;5034498;28;7005;-70
2022/01/19 10:26:27;;;;;;;;;;;;;;;9.59;53.37;101448.75;5012787;28;7066;-70
2022/01/19 10:29:10;;;;;;;;;;;;;;;9.63;54.15;101437.06;5035885;28;7093;-70
2022/01/19 10:31:43;;;;;;;;;;;;;;;9.63;53.65;101441.28;5013142;28;7198;-70
2022/01/19 10:34:21;;;;;;;;;;;;;;;9.64;53.44;101446.50;5019071;28;6815;-70
2022/01/19 10:37:02;;;;;;;;;;;;;;;9.66;53.99;101437.25;5001614;28;7031;-70
2022/01/19 10:40:00;;;;;;;;;;;;;;;9.68;53.80;101433.13;5051080;28;7233;-70
2022/01/19 10:42:30;;;;;;;;;;;;;;;9.69;52.84;101429.78;4983045;28;7006;-70
2022/01/19 10:45:04;;;;;;;;;;;;;;;9.71;52.75;101437.56;5019871;28;7002;-70
2022/01/19 10:47:42;;;;;;;;;;;;;;;9.70;52.82;101420.44;5022246;28;6872;-70
2022/01/19 10:50:30;;;;;;;;;;;;;;;9.70;52.71;101429.00;5023314;28;6804;-70
2022/01/19 10:53:05;;;;;;;;;;;;;;;9.70;53.32;101421.31;5012278;28;6969;-70
2022/01/19 10:55:42;;;;;;;;;;;;;;;9.71;53.30;101414.53;5021659;28;7559;-70
2022/01/19 10:58:15;;;;;;;;;;;;;;;9.76;53.58;101409.72;5040486;28;6977;-70
2022/01/19 11:00:49;;;;;;;;;;;;;;;9.81;53.85;101404.13;5040337;28;6864;-70
2022/01/19 11:03:20;;;;;;;;;;;;;;;9.86;53.68;101399.31;5024004;28;8082;-70
2022/01/19 11:05:53;;;;;;;;;;;;;;;9.90;52.66;101395.28;5041954;28;6930;-70
2022/01/19 11:08:21;;;;;;;;;;;;;;;9.94;52.53;101392.13;5021115;28;6883;-70
2022/01/19 11:10:52;;;;;;;;;;;;;;;9.96;52.19;101390.59;5040801;28;7235;-70
2022/01/19 11:13:40;;;;;;;;;;;;;;;9.96;52.63;101382.91;5021856;28;7200;-70
2022/01/19 11:16:07;;;;;;;;;;;;;;;9.93;52.99;101382.66;5024870;28;6827;-70
2022/01/19 11:18:37;;;;;;;;;;;;;;;9.89;52.46;101380.72;5022515;28;7085;-71
2022/01/19 11:21:10;;;;;;;;;;;;;;;9.84;52.32;101381.28;5040167;28;6819;-72
2022/01/19 11:23:50;;;;;;;;;;;;;;;9.82;52.98;101377.72;5016952;28;7936;-70
2022/01/19 11:26:22;;;;;;;;;;;;;;;9.84;52.82;101381.28;5023278;28;7011;-70
2022/01/19 11:28:50;;;;;;;;;;;;;;;9.83;51.68;101376.06;5017235;28;7213;-70
2022/01/19 11:31:39;;;;;;;;;;;;;;;9.79;52.50;101362.16;5023035;28;6864;-70
2022/01/19 11:34:05;;;;;;;;;;;;;;;9.79;51.90;101356.16;5015420;28;7908;-70
2022/01/19 11:36:36;;;;;;;;;;;;;;;9.75;52.55;101357.63;5052589;28;7227;-70
2022/01/19 11:39:21;;;;;;;;;;;;;;;9.73;52.90;101359.19;5052233;28;6982;-70
2022/01/19 11:41:56;;;;;;;;;;;;;;;9.67;52.65;101352.00;5017220;28;7239;-70
2022/01/19 11:44:30;;;;;;;;;;;;;;;9.65;51.77;101355.22;5040145;28;6879;-70
2022/01/19 11:47:13;;;;;;;;;;;;;;;9.62;52.72;101348.25;5027538;28;6879;-70
2022/01/19 11:49:56;;;;;;;;;;;;;;;9.59;53.05;101340.34;5031996;28;6899;-70
2022/01/19 11:52:30;;;;;;;;;;;;;;;9.56;52.63;101325.69;5041210;28;6873;-70
2022/01/19 11:55:22;;;;;;;;;;;;;;;9.57;52.63;101327.47;5034582;28;6930;-70
2022/01/19 11:58:09;;;;;;;;;;;;;;;9.57;52.89;101319.78;5034015;28;6819;-70
2022/01/19 12:00:35;;;;;;;;;;;;;;;9.56;52.46;101312.91;5020678;28;7928;-70
2022/01/19 12:03:23;;;;;;;;;;;;;;;9.59;53.14;101307.06;5035457;28;6792;-70
2022/01/19 12:05:52;;;;;;;;;;;;;;;9.58;53.01;101303.66;5004801;28;7297;-70
2022/01/19 12:08:29;;;;;;;;;;;;;;;9.59;52.26;101305.41;5051891;28;6807;-70
2022/01/19 12:11:37;;;;;;;;;;;;;;;9.58;52.75;101298.53;5012757;28;6888;-70
2022/01/19 12:14:12;;;;;;;;;;;;;;;9.57;52.15;101295.84;4990844;28;6835;-69
2022/01/19 12:19:06;;;;;;;;;;;;;;;9.56;51.90;101279.63;5019174;28;6812;-70
2022/01/19 12:21:32;;;;;;;;;;;;;;;9.59;52.03;101274.69;5039864;28;6799;-70
2022/01/19 12:24:21;;;;;;;;;;;;;;;9.62;52.09;101273.13;5040535;28;8079;-70
2022/01/19 12:27:22;;;;;;;;;;;;;;;9.64;52.11;101266.44;5039794;28;7087;-70
2022/01/19 12:30:06;;;;;;;;;;;;;;;9.63;51.96;101256.97;5011912;28;6988;-70
2022/01/19 12:32:35;;;;;;;;;;;;;;;9.63;52.53;101257.88;5038222;28;6994;-70
2022/01/19 12:35:04;;;;;;;;;;;;;;;9.63;52.64;101252.75;5038430;28;6816;-70
2022/01/19 12:37:32;;;;;;;;;;;;;;;9.64;52.36;101251.06;5022293;28;7123;-70
2022/01/19 12:40:05;;;;;;;;;;;;;;;9.63;52.63;101263.00;5036811;28;6910;-70
2022/01/19 12:42:44;;;;;;;;;;;;;;;9.59;52.76;101251.66;5040952;28;7070;-70
2022/01/19 12:45:15;;;;;;;;;;;;;;;9.57;51.98;101254.91;5012748;28;6811;-70
2022/01/19 12:47:41;;;;;;;;;;;;;;;9.54;51.96;101258.13;5035503;28;6804;-70
2022/01/19 12:50:06;;;;;;;;;;;;;;;9.51;52.82;101247.72;5037613;28;7832;-70
2022/01/19 12:52:35;;;;;;;;;;;;;;;9.49;53.03;101241.63;5020024;28;6887;-69
2022/01/19 12:55:22;;;;;;;;;;;;;;;9.50;52.90;101245.03;5053371;28;6880;-70
2022/01/19 12:57:50;;;;;;;;;;;;;;;9.48;52.44;101244.06;5038403;28;6807;-70
2022/01/19 13:00:36;;;;;;;;;;;;;;;9.47;53.17;101235.50;5019600;28;6796;-70
2022/01/19 13:03:40;;;;;;;;;;;;;;;9.45;52.33;101243.09;5020826;28;7964;-70
2022/01/19 13:06:13;;;;;;;;;;;;;;;9.43;52.56;101233.53;5019931;28;6824;-70
2022/01/19 13:09:07;;;;;;;;;;;;;;;9.43;52.87;101229.31;5031919;28;6831;-70
2022/01/19 13:11:50;;;;;;;;;;;;;;;9.40;53.54;101228.22;5023441;28;7059;-70
2022/01/19 13:14:17;;;;;;;;;;;;;;;9.37;52.79;101230.59;5022241;28;6829;-70
2022/01/19 13:16:49;;;;;;;;;;;;;;;9.33;52.50;101233.69;5038462;28;6945;-70
2022/01/19 13:19:27;;;;;;;;;;;;;;;9.28;52.89;101230.84;5017564;28;6891;-70
2022/01/19 13:22:07;;;;;;;;;;;;;;;9.23;53.11;101240.75;5018630;28;7112;-70
2022/01/19 13:24:36;;;;;;;;;;;;;;;9.20;53.17;101238.00;5029132;28;6911;-70
2022/01/19 13:27:07;;;;;;;;;;;;;;;9.13;53.51;101231.59;5013622;28;6813;-70
2022/01/19 13:29:42;;;;;;;;;;;;;;;9.05;54.00;101226.72;5019084;28;6807;-70
2022/01/19 13:32:14;;;;;;;;;;;;;;;8.93;54.82;101217.47;5033007;28;7115;-70
2022/01/19 13:35:03;;;;;;;;;;;;;;;8.84;54.61;101216.84;5014353;28;7211;-70
2022/01/19 13:37:41;;;;;;;;;;;;;;;8.73;54.68;101211.88;4998587;28;8081;-69
2022/01/19 13:40:20;;;;;;;;;;;;;;;8.66;55.32;101207.13;5034792;28;6811;-70
2022/01/19 13:42:58;;;;;;;;;;;;;;;8.58;55.97;101192.91;5015568;28;6812;-70
2022/01/19 13:50:44;;;;;;;;;;;;;;;8.45;56.96;101191.16;5008421;28;6933;-69
2022/01/19 13:53:13;;;;;;;;;;;;;;;8.42;56.41;101196.06;5001041;28;7909;-70
2022/01/19 13:55:39;;;;;;;;;;;;;;;8.39;56.42;101170.31;4998039;28;7107;-70
2022/01/19 13:58:11;;;;;;;;;;;;;;;8.38;56.69;101176.19;5017088;28;6900;-70
2022/01/19 14:00:59;;;;;;;;;;;;;;;8.34;57.30;101155.53;4996251;28;8058;-70
2022/01/19 14:03:48;;;;;;;;;;;;;;;8.32;56.58;101154.56;5036242;28;6831;-70
2022/01/19 14:06:30;;;;;;;;;;;;;;;8.34;56.56;101157.22;5039370;28;7776;-72
2022/01/19 14:09:31;;;;;;;;;;;;;;;8.33;57.37;101150.34;5040569;28;6918;-72
2022/01/19 14:12:03;;;;;;;;;;;;;;;8.33;58.02;101151.22;5016865;28;6839;-72
2022/01/19 14:14:50;;;;;;;;;;;;;;;8.35;57.12;101143.66;5018327;28;6879;-72
2022/01/19 14:17:38;;;;;;;;;;;;;;;8.37;58.03;101141.22;5020653;28;7013;-72
2022/01/19 14:20:14;;;;;;;;;;;;;;;8.38;58.01;101137.88;5015765;28;6929;-72
2022/01/19 14:22:39;;;;;;;;;;;;;;;8.40;57.89;101133.75;5023144;28;7676;-70
2022/01/19 14:25:08;;;;;;;;;;;;;;;8.42;57.81;101133.09;4998292;28;9519;-70
2022/01/19 14:27:48;;;;;;;;;;;;;;;8.45;58.14;101130.75;5012991;28;7260;-70
2022/01/19 14:30:13;;;;;;;;;;;;;;;8.48;57.77;101124.97;5016232;28;7872;-70
2022/01/19 14:32:54;;;;;;;;;;;;;;;8.53;57.01;101127.88;5019941;28;7046;-72
2022/01/19 14:35:51;;;;;;;;;;;;;;;8.55;58.14;101122.09;5037755;28;7322;-72
2022/01/19 14:38:47;;;;;;;;;;;;;;;8.60;58.43;101130.06;5033300;28;6835;-72
2022/01/19 14:41:26;;;;;;;;;;;;;;;8.63;58.35;101121.69;5019867;28;7261;-70
2022/01/19 14:44:19;;;;;;;;;;;;;;;8.65;58.41;101113.34;5017232;28;6827;-70
2022/01/19 14:47:13;;;;;;;;;;;;;;;8.67;56.95;101106.66;5040204;28;7136;-70
2022/01/19 14:49:38;;;;;;;;;;;;;;;8.68;57.96;101113.53;5021250;28;6968;-70
2022/01/19 14:52:04;;;;;;;;;;;;;;;8.70;57.19;101106.00;5014487;28;6791;-70
2022/01/19 14:54:30;;;;;;;;;;;;;;;8.69;57.70;101100.00;5013952;28;7012;-70